createdAt,value
2022-08-08T00:02:04.113Z,5.22
2022-08-08T00:04:35.166Z,5.90
2022-08-08T00:07:12.465Z,5.90
2022-08-08T00:09:48.253Z,9.18
2022-08-08T00:12:23.802Z,6.32
2022-08-08T00:14:58.827Z,5.65
2022-08-08T00:18:03.149Z,4.63
2022-08-08T00:20:44.633Z,4.35
2022-08-08T00:23:43.176Z,6.15
2022-08-08T00:26:26.468Z,4.85
2022-08-08T00:29:01.499Z,4.65
2022-08-08T00:32:28.204Z,5.25
2022-08-08T00:35:00.666Z,4.20
2022-08-08T00:38:01.652Z,3.75
2022-08-08T00:41:09.798Z,4.63
2022-08-08T00:43:41.066Z,4.50
2022-08-08T00:46:16.505Z,4.43
2022-08-08T00:49:02.358Z,3.40
2022-08-08T00:51:38.225Z,4.13
2022-08-08T00:54:28.803Z,4.68
2022-08-08T00:57:23.608Z,4.50
2022-08-08T01:00:04.839Z,5.15
2022-08-08T01:03:58.128Z,4.78
2022-08-08T01:05:58.578Z,3.47
2022-08-08T01:08:51.794Z,2.85
2022-08-08T01:11:24.414Z,3.72
2022-08-08T01:13:58.445Z,3.30
2022-08-08T01:16:34.064Z,7.05
2022-08-08T01:19:42.102Z,3.33
2022-08-08T01:22:13.265Z,4.00
2022-08-08T01:24:50.925Z,3.28
2022-08-08T01:27:44.544Z,3.28
2022-08-08T01:30:12.470Z,3.95
2022-08-08T01:32:38.865Z,6.15
2022-08-08T01:35:11.926Z,3.33
2022-08-08T01:37:57.896Z,3.35
2022-08-08T01:40:38.176Z,4.28
2022-08-08T01:43:07.656Z,4.03
2022-08-08T01:45:35.368Z,3.25
2022-08-08T01:48:23.581Z,3.60
2022-08-08T01:51:17.260Z,3.42
2022-08-08T01:55:16.844Z,3.53
2022-08-08T01:56:42.407Z,3.23
2022-08-08T01:59:19.213Z,3.10
2022-08-08T02:02:05.538Z,2.95
2022-08-08T02:04:43.023Z,4.43
2022-08-08T02:07:15.819Z,4.35
2022-08-08T02:10:11.478Z,4.18
2022-08-08T02:12:53.446Z,3.03
2022-08-08T02:15:25.783Z,4.15
2022-08-08T02:17:52.131Z,4.25
2022-08-08T02:21:02.679Z,3.70
2022-08-08T02:23:28.957Z,4.10
2022-08-08T02:26:02.454Z,3.53
2022-08-08T02:28:34.929Z,3.13
2022-08-08T02:31:58.167Z,3.45
2022-08-08T02:34:09.795Z,4.70
2022-08-08T02:36:47.395Z,3.40
2022-08-08T02:39:42.557Z,3.47
2022-08-08T02:42:18.014Z,5.97
2022-08-08T02:45:18.836Z,3.28
2022-08-08T02:47:55.036Z,3.03
2022-08-08T02:50:34.672Z,3.35
2022-08-08T02:53:20.335Z,4.88
2022-08-08T02:56:08.998Z,2.90
2022-08-08T02:58:47.709Z,4.00
2022-08-08T03:01:15.317Z,2.83
2022-08-08T03:05:00.188Z,3.42
2022-08-08T03:06:34.832Z,3.97
2022-08-08T03:09:19.742Z,2.95
2022-08-08T03:12:14.080Z,3.40
2022-08-08T03:15:57.291Z,3.13
2022-08-08T03:17:40.568Z,5.32
2022-08-08T03:20:08.169Z,4.55
2022-08-08T03:22:56.737Z,3.65
2022-08-08T03:25:34.213Z,4.97
2022-08-08T03:28:04.956Z,2.50
2022-08-08T03:30:32.131Z,3.33
2022-08-08T03:33:56.116Z,3.40
2022-08-08T03:36:10.430Z,2.95
2022-08-08T03:38:56.737Z,4.65
2022-08-08T03:42:27.393Z,3.45
2022-08-08T03:44:17.727Z,5.63
2022-08-08T03:46:47.650Z,3.45
2022-08-08T03:50:01.016Z,3.53
2022-08-08T03:52:05.200Z,2.45
2022-08-08T03:54:52.395Z,3.53
2022-08-08T03:58:32.222Z,3.67
2022-08-08T04:00:18.145Z,3.78
2022-08-08T04:02:54.555Z,4.47
2022-08-08T04:05:28.441Z,3.58
2022-08-08T04:07:55.952Z,4.35
2022-08-08T04:10:22.613Z,3.40
2022-08-08T04:12:49.866Z,3.60
2022-08-08T04:15:16.423Z,3.10
2022-08-08T04:17:46.248Z,4.78
2022-08-08T04:20:28.638Z,3.33
2022-08-08T04:22:56.891Z,3.33
2022-08-08T04:25:29.880Z,3.20
2022-08-08T04:28:34.980Z,4.50
2022-08-08T04:30:44.774Z,4.00
2022-08-08T04:33:11.455Z,2.75
2022-08-08T04:35:39.913Z,5.32
2022-08-08T04:38:09.722Z,4.00
2022-08-08T04:40:36.402Z,2.95
2022-08-08T04:43:03.260Z,3.03
2022-08-08T04:45:33.632Z,3.42
2022-08-08T04:48:00.667Z,4.22
2022-08-08T04:50:34.198Z,4.75
2022-08-08T04:53:04.981Z,3.53
2022-08-08T04:55:55.604Z,5.43
2022-08-08T04:58:22.912Z,4.82
2022-08-08T05:00:49.846Z,5.03
2022-08-08T05:03:18.895Z,3.33
2022-08-08T05:06:12.277Z,4.80
2022-08-08T05:08:40.635Z,4.03
2022-08-08T05:13:34.759Z,4.50
2022-08-08T05:16:53.571Z,3.95
2022-08-08T05:20:09.733Z,4.57
2022-08-08T05:21:59.826Z,4.85
2022-08-08T05:24:27.022Z,5.75
2022-08-08T05:26:53.442Z,3.70
2022-08-08T05:29:19.844Z,4.18
2022-08-08T05:32:05.505Z,5.40
2022-08-08T05:34:37.151Z,4.22
2022-08-08T05:37:15.931Z,6.78
2022-08-08T05:39:49.972Z,4.07
2022-08-08T05:42:16.587Z,4.03
2022-08-08T05:44:46.740Z,3.63
2022-08-08T05:47:21.131Z,4.68
2022-08-08T05:49:54.134Z,4.95
2022-08-08T05:52:32.043Z,3.10
2022-08-08T05:55:04.595Z,3.33
2022-08-08T05:58:03.783Z,5.07
2022-08-08T06:00:25.615Z,4.05
2022-08-08T06:03:13.376Z,2.85
2022-08-08T06:05:51.676Z,3.22
2022-08-08T06:08:34.905Z,3.33
2022-08-08T06:11:03.165Z,3.90
2022-08-08T06:13:35.745Z,4.35
2022-08-08T06:16:03.139Z,5.65
2022-08-08T06:18:30.144Z,5.25
2022-08-08T06:20:57.743Z,5.85
2022-08-08T06:23:48.711Z,4.40
2022-08-08T06:26:42.836Z,5.25
2022-08-08T06:28:57.923Z,4.45
2022-08-08T06:32:08.971Z,3.85
2022-08-08T06:34:26.334Z,4.05
2022-08-08T06:36:57.134Z,6.47
2022-08-08T06:39:28.049Z,4.18
2022-08-08T06:42:02.758Z,4.90
2022-08-08T06:44:30.310Z,5.10
2022-08-08T06:46:57.887Z,3.67
2022-08-08T06:52:10.806Z,6.88
2022-08-08T06:54:43.137Z,3.55
2022-08-08T07:00:01.647Z,4.40
2022-08-08T07:02:29.007Z,6.20
2022-08-08T07:05:04.720Z,5.05
2022-08-08T07:07:32.832Z,3.22
2022-08-08T07:10:01.577Z,4.60
2022-08-08T07:12:51.021Z,3.13
2022-08-08T07:15:32.800Z,5.88
2022-08-08T07:18:36.317Z,4.00
2022-08-08T07:20:54.290Z,3.28
2022-08-08T07:23:28.128Z,4.95
2022-08-08T07:26:18.552Z,4.78
2022-08-08T07:28:56.401Z,3.13
2022-08-08T07:31:24.275Z,3.75
2022-08-08T07:33:53.679Z,3.42
2022-08-08T07:36:26.161Z,3.13
2022-08-08T07:38:53.412Z,6.55
2022-08-08T07:43:54.818Z,4.13
2022-08-08T07:46:29.160Z,4.30
2022-08-08T07:48:57.154Z,5.53
2022-08-08T07:51:44.880Z,4.53
2022-08-08T07:54:34.543Z,3.40
2022-08-08T07:57:16.931Z,4.38
2022-08-08T08:00:05.407Z,2.20
2022-08-08T08:02:44.551Z,4.20
2022-08-08T08:05:26.247Z,3.17
2022-08-08T08:08:04.428Z,2.83
2022-08-08T08:10:33.312Z,3.15
2022-08-08T08:13:25.434Z,2.60
2022-08-08T08:16:04.065Z,3.13
2022-08-08T08:18:56.018Z,2.97
2022-08-08T08:21:44.059Z,2.50
2022-08-08T08:24:11.969Z,3.30
2022-08-08T08:26:39.091Z,2.42
2022-08-08T08:29:13.816Z,3.35
2022-08-08T08:31:43.057Z,4.03
2022-08-08T08:34:09.583Z,2.30
2022-08-08T08:36:36.085Z,2.67
2022-08-08T08:39:03.683Z,2.97
2022-08-08T08:41:34.948Z,2.40
2022-08-08T08:44:13.531Z,3.65
2022-08-08T08:46:41.365Z,2.30
2022-08-08T08:49:14.937Z,2.20
2022-08-08T08:51:51.060Z,1.70
2022-08-08T08:54:19.209Z,2.85
2022-08-08T08:56:52.261Z,2.85
2022-08-08T08:59:23.608Z,2.63
2022-08-08T09:02:08.332Z,2.38
2022-08-08T09:04:44.554Z,2.58
2022-08-08T09:07:18.308Z,2.63
2022-08-08T09:09:47.801Z,2.25
2022-08-08T09:12:16.825Z,2.58
2022-08-08T09:14:47.568Z,2.20
2022-08-08T09:17:18.914Z,2.65
2022-08-08T09:22:04.777Z,2.83
2022-08-08T09:22:35.130Z,2.53
2022-08-08T09:25:02.750Z,2.67
2022-08-08T09:27:41.791Z,2.85
2022-08-08T09:30:17.717Z,1.02
2022-08-08T09:33:11.953Z,5.32
2022-08-08T09:35:50.141Z,2.75
2022-08-08T09:38:52.959Z,1.52
2022-08-08T09:41:26.086Z,1.60
2022-08-08T09:44:12.895Z,2.90
2022-08-08T09:46:45.609Z,1.58
2022-08-08T09:49:42.802Z,2.17
2022-08-08T09:52:53.858Z,2.78
2022-08-08T09:54:58.123Z,1.42
2022-08-08T09:57:46.117Z,3.45
2022-08-08T10:00:37.384Z,1.83
2022-08-08T10:03:02.321Z,3.67
2022-08-08T10:05:34.117Z,6.95
2022-08-08T10:08:01.651Z,1.85
2022-08-08T10:10:30.414Z,2.78
2022-08-08T10:13:05.978Z,1.42
2022-08-08T10:15:42.206Z,2.63
2022-08-08T10:18:29.917Z,1.75
2022-08-08T10:21:08.550Z,2.38
2022-08-08T10:23:58.607Z,2.65
2022-08-08T10:26:57.540Z,7.63
2022-08-08T10:29:21.164Z,4.50
2022-08-08T10:32:15.085Z,3.83
2022-08-08T10:34:49.343Z,2.92
2022-08-08T10:37:30.747Z,1.95
2022-08-08T10:39:57.817Z,1.45
2022-08-08T10:42:32.044Z,1.25
2022-08-08T10:44:59.816Z,1.48
2022-08-08T10:47:30.459Z,1.17
2022-08-08T10:50:03.268Z,1.67
2022-08-08T10:52:31.492Z,1.42
2022-08-08T10:55:11.985Z,2.90
2022-08-08T10:57:45.028Z,3.13
2022-08-08T11:00:21.766Z,1.42
2022-08-08T11:02:50.172Z,3.00
2022-08-08T11:05:17.691Z,1.73
2022-08-08T11:08:36.875Z,2.80
2022-08-08T11:10:35.019Z,1.98
2022-08-08T11:13:28.110Z,1.70
2022-08-08T11:15:59.021Z,2.58
2022-08-08T11:18:28.030Z,2.38
2022-08-08T11:20:57.529Z,2.47
2022-08-08T11:23:25.315Z,2.97
2022-08-08T11:25:58.858Z,2.45
2022-08-08T11:28:30.383Z,1.77
2022-08-08T11:30:59.714Z,1.58
2022-08-08T11:33:51.534Z,0.60
2022-08-08T11:36:15.119Z,1.15
2022-08-08T11:38:55.487Z,1.40
2022-08-08T11:41:27.643Z,1.17
2022-08-08T11:43:58.616Z,1.15
2022-08-08T11:46:28.167Z,0.77
2022-08-08T11:48:57.951Z,1.95
2022-08-08T11:51:30.054Z,0.68
2022-08-08T11:54:02.407Z,1.17
2022-08-08T11:56:35.032Z,2.33
2022-08-08T11:59:11.726Z,0.73
2022-08-08T12:01:38.258Z,1.95
2022-08-08T12:04:05.312Z,1.75
2022-08-08T12:06:35.266Z,1.42
2022-08-08T12:09:06.853Z,0.57
2022-08-08T12:11:38.251Z,1.10
2022-08-08T12:14:07.831Z,0.82
2022-08-08T12:16:47.526Z,1.05
2022-08-08T12:19:15.716Z,1.85
2022-08-08T12:22:00.317Z,2.17
2022-08-08T12:24:29.822Z,0.65
2022-08-08T12:26:58.517Z,0.40
2022-08-08T12:29:40.774Z,1.45
2022-08-08T12:32:19.655Z,0.95
2022-08-08T12:35:13.667Z,0.68
2022-08-08T12:40:36.402Z,0.80
2022-08-08T12:43:11.020Z,0.38
2022-08-08T12:45:58.956Z,1.95
2022-08-08T12:48:37.142Z,1.10
2022-08-08T12:51:05.182Z,0.93
2022-08-08T12:53:42.272Z,0.73
2022-08-08T12:56:18.834Z,1.13
2022-08-08T12:58:51.094Z,1.77
2022-08-08T13:01:24.317Z,0.57
2022-08-08T13:04:11.640Z,3.50
2022-08-08T13:06:38.136Z,0.60
2022-08-08T13:09:08.399Z,1.77
2022-08-08T13:12:24.520Z,1.88
2022-08-08T13:14:38.853Z,1.85
2022-08-08T13:20:12.246Z,1.90
2022-08-08T13:22:39.514Z,0.60
2022-08-08T13:25:06.247Z,0.82
2022-08-08T13:27:35.806Z,0.73
2022-08-08T13:30:04.841Z,0.93
2022-08-08T13:32:35.895Z,0.47
2022-08-08T13:35:03.727Z,0.98
2022-08-08T13:38:05.158Z,1.35
2022-08-08T13:40:27.073Z,1.30
2022-08-08T13:42:54.657Z,0.40
2022-08-08T13:45:23.886Z,0.85
2022-08-08T13:47:58.224Z,0.85
2022-08-08T13:50:35.689Z,1.95
2022-08-08T13:53:24.264Z,1.43
2022-08-08T13:55:58.694Z,2.38
2022-08-08T13:58:29.024Z,0.77
2022-08-08T14:00:55.758Z,0.98
2022-08-08T14:03:53.793Z,1.05
2022-08-08T14:06:32.100Z,0.75
2022-08-08T14:09:24.734Z,0.77
2022-08-08T14:11:47.725Z,1.30
2022-08-08T14:14:20.611Z,1.10
2022-08-08T14:16:50.577Z,1.33
2022-08-08T14:19:28.083Z,1.67
2022-08-08T14:22:12.662Z,1.55
2022-08-08T14:25:07.603Z,2.50
2022-08-08T14:27:35.822Z,1.35
2022-08-08T14:30:04.034Z,0.70
2022-08-08T14:32:46.375Z,1.65
2022-08-08T14:35:20.090Z,0.40
2022-08-08T14:37:59.760Z,1.40
2022-08-08T14:40:29.627Z,0.85
2022-08-08T14:42:59.665Z,2.47
2022-08-08T14:45:47.094Z,0.85
2022-08-08T14:48:16.202Z,0.50
2022-08-08T14:50:45.391Z,1.27
2022-08-08T14:53:13.678Z,2.20
2022-08-08T14:55:41.960Z,1.27
2022-08-08T14:58:12.020Z,1.45
2022-08-08T15:00:43.407Z,1.55
2022-08-08T15:03:15.822Z,1.00
2022-08-08T15:05:53.569Z,1.10
2022-08-08T15:08:34.987Z,0.57
2022-08-08T15:11:06.453Z,1.88
2022-08-08T15:13:34.935Z,1.42
2022-08-08T15:16:08.520Z,0.80
2022-08-08T15:18:40.090Z,0.43
2022-08-08T15:21:10.866Z,3.75
2022-08-08T15:23:39.152Z,1.85
2022-08-08T15:26:09.591Z,3.05
2022-08-08T15:28:39.116Z,1.60
2022-08-08T15:31:05.625Z,1.33
2022-08-08T15:33:38.450Z,0.40
2022-08-08T15:36:18.898Z,0.70
2022-08-08T15:38:49.715Z,3.90
2022-08-08T15:41:17.373Z,0.52
2022-08-08T15:44:00.681Z,0.93
2022-08-08T15:46:35.277Z,0.73
2022-08-08T15:49:01.984Z,1.00
2022-08-08T15:51:32.675Z,0.80
2022-08-08T15:53:59.971Z,1.42
2022-08-08T15:56:26.885Z,1.85
2022-08-08T15:58:53.326Z,0.73
2022-08-08T16:01:21.005Z,0.57
2022-08-08T16:03:51.832Z,1.02
2022-08-08T16:06:27.584Z,0.82
2022-08-08T16:13:02.213Z,1.13
2022-08-08T16:13:04.077Z,2.15
2022-08-08T16:14:32.606Z,1.05
2022-08-08T16:17:00.047Z,1.25
2022-08-08T16:19:27.088Z,2.22
2022-08-08T16:21:53.991Z,3.53
2022-08-08T16:24:22.979Z,0.90
2022-08-08T16:26:50.841Z,2.00
2022-08-08T16:29:23.811Z,2.13
2022-08-08T16:32:11.621Z,2.90
2022-08-08T16:34:47.389Z,1.40
2022-08-08T16:37:13.828Z,1.25
2022-08-08T16:40:02.528Z,3.80
2022-08-08T16:42:29.748Z,1.75
2022-08-08T16:44:58.885Z,2.10
2022-08-08T16:47:39.803Z,2.88
2022-08-08T16:50:13.820Z,3.17
2022-08-08T16:55:00.749Z,1.95
2022-08-08T16:55:56.158Z,5.07
2022-08-08T16:58:18.511Z,3.42
2022-08-08T17:00:48.911Z,3.15
2022-08-08T17:03:16.045Z,2.28
2022-08-08T17:05:51.252Z,2.20
2022-08-08T17:08:17.642Z,5.47
2022-08-08T17:10:57.938Z,1.92
2022-08-08T17:13:27.457Z,2.30
2022-08-08T17:16:07.183Z,3.60
2022-08-08T17:18:42.127Z,3.95
2022-08-08T17:21:09.203Z,3.25
2022-08-08T17:23:58.373Z,3.17
2022-08-08T17:26:28.880Z,3.60
2022-08-08T17:28:55.571Z,2.70
2022-08-08T17:31:46.377Z,1.27
2022-08-08T17:34:35.900Z,2.88
2022-08-08T17:37:02.928Z,6.85
2022-08-08T17:40:03.439Z,3.05
2022-08-08T17:42:18.458Z,3.28
2022-08-08T17:44:46.258Z,3.70
2022-08-08T17:47:23.107Z,1.85
2022-08-08T17:50:02.936Z,1.73
2022-08-08T17:52:30.811Z,1.23
2022-08-08T17:54:57.487Z,2.25
2022-08-08T17:57:24.210Z,2.83
2022-08-08T17:59:51.861Z,1.67
2022-08-08T18:02:28.685Z,1.33
2022-08-08T18:04:58.155Z,1.55
2022-08-08T18:08:02.607Z,1.30
2022-08-08T18:10:11.657Z,2.05
2022-08-08T18:12:38.143Z,1.83
2022-08-08T18:18:09.483Z,2.38
2022-08-08T18:23:03.867Z,2.35
2022-08-08T18:25:37.233Z,2.92
2022-08-08T18:28:04.508Z,2.42
2022-08-08T18:30:31.877Z,4.65
2022-08-08T18:32:58.466Z,7.25
2022-08-08T18:35:25.148Z,4.45
2022-08-08T18:38:03.623Z,2.00
2022-08-08T18:40:35.434Z,6.35
2022-08-08T18:43:02.665Z,7.18
2022-08-08T18:46:53.175Z,4.03
2022-08-08T18:50:58.338Z,2.28
2022-08-08T18:53:25.370Z,2.25
2022-08-08T19:01:04.585Z,1.85
2022-08-08T19:04:10.224Z,2.40
2022-08-08T19:06:36.989Z,1.95
2022-08-08T19:09:03.647Z,3.75
2022-08-08T19:14:06.366Z,3.58
2022-08-08T19:16:34.105Z,2.50
2022-08-08T19:19:02.613Z,4.00
2022-08-08T19:21:33.259Z,2.70
2022-08-08T19:24:01.366Z,2.78
2022-08-08T19:26:33.279Z,1.83
2022-08-08T19:29:00.174Z,3.80
2022-08-08T19:31:31.366Z,2.25
2022-08-08T19:34:30.207Z,5.85
2022-08-08T19:36:50.083Z,2.40
2022-08-08T19:39:16.607Z,3.63
2022-08-08T19:41:46.014Z,2.13
2022-08-08T19:44:42.309Z,3.45
2022-08-08T19:47:01.638Z,3.53
2022-08-08T19:49:29.565Z,2.05
2022-08-08T19:52:04.580Z,2.55
2022-08-08T19:54:31.941Z,4.53
2022-08-08T19:56:58.825Z,3.50
2022-08-08T19:59:30.848Z,11.98
2022-08-08T20:02:04.496Z,5.60
2022-08-08T20:04:31.678Z,7.43
2022-08-08T20:07:05.423Z,6.53
2022-08-08T20:09:55.328Z,8.52
2022-08-08T20:12:31.967Z,6.82
2022-08-08T20:15:01.897Z,8.60
2022-08-08T20:17:41.629Z,7.18
2022-08-08T20:20:09.993Z,9.05
2022-08-08T20:22:40.277Z,7.07
2022-08-08T20:25:07.923Z,7.18
2022-08-08T20:27:49.177Z,6.85
2022-08-08T20:30:52.329Z,5.93
2022-08-08T20:33:04.318Z,4.18
2022-08-08T20:35:58.931Z,4.40
2022-08-08T20:38:32.695Z,4.72
2022-08-08T20:40:59.591Z,5.30
2022-08-08T20:46:10.776Z,3.25
2022-08-08T20:48:37.186Z,16.48
2022-08-08T20:51:05.531Z,7.70
2022-08-08T20:54:00.109Z,6.47
2022-08-08T20:56:34.663Z,4.65
2022-08-08T20:59:01.315Z,2.38
2022-08-08T21:01:32.262Z,4.85
2022-08-08T21:04:01.511Z,5.20
2022-08-08T21:06:52.449Z,7.07
2022-08-08T21:09:16.133Z,5.05
2022-08-08T21:11:51.525Z,3.80
2022-08-08T21:14:30.493Z,2.90
2022-08-08T21:17:01.592Z,2.63
2022-08-08T21:19:33.932Z,2.65
2022-08-08T21:22:00.662Z,5.65
2022-08-08T21:24:30.322Z,4.50
2022-08-08T21:26:57.502Z,2.00
2022-08-08T21:30:04.456Z,3.08
2022-08-08T21:32:14.152Z,2.75
2022-08-08T21:34:51.623Z,2.10
2022-08-08T21:37:23.450Z,1.95
2022-08-08T21:40:10.296Z,2.13
2022-08-08T21:42:37.864Z,3.03
2022-08-08T21:45:44.621Z,2.57
2022-08-08T21:48:05.750Z,2.88
2022-08-08T21:50:37.114Z,2.13
2022-08-08T21:56:26.630Z,2.83
2022-08-08T21:58:37.701Z,3.13
2022-08-08T22:01:04.667Z,3.40
2022-08-08T22:03:31.395Z,3.08
2022-08-08T22:06:00.644Z,3.28
2022-08-08T22:08:37.321Z,6.13
2022-08-08T22:11:59.077Z,3.78
2022-08-08T22:13:55.808Z,3.08
2022-08-08T22:16:24.962Z,5.15
2022-08-08T22:18:52.737Z,4.70
2022-08-08T22:21:21.903Z,3.72
2022-08-08T22:23:51.826Z,2.45
2022-08-08T22:26:30.035Z,3.03
2022-08-08T22:29:14.472Z,2.97
2022-08-08T22:31:44.004Z,3.05
2022-08-08T22:34:27.009Z,2.08
2022-08-08T22:36:53.568Z,3.33
2022-08-08T22:39:20.071Z,3.77
2022-08-08T22:41:46.617Z,2.87
2022-08-08T22:44:15.787Z,2.40
2022-08-08T22:46:42.597Z,2.20
2022-08-08T22:49:12.305Z,3.95
2022-08-08T22:51:46.400Z,2.58
2022-08-08T22:54:34.252Z,2.80
2022-08-08T22:59:26.295Z,3.37
2022-08-08T23:02:04.666Z,2.38
2022-08-08T23:04:55.855Z,3.65
2022-08-08T23:07:49.349Z,2.30
2022-08-08T23:10:12.693Z,3.50
2022-08-08T23:12:46.641Z,2.60
2022-08-08T23:16:39.633Z,3.10
2022-08-08T23:18:01.683Z,3.25
2022-08-08T23:20:30.666Z,3.22
2022-08-08T23:22:57.343Z,4.13
2022-08-08T23:25:23.852Z,3.38
2022-08-08T23:27:54.466Z,2.63
2022-08-08T23:30:22.460Z,3.28
2022-08-08T23:32:49.467Z,2.95
2022-08-08T23:35:18.647Z,4.32
2022-08-08T23:38:01.899Z,4.45
2022-08-08T23:40:30.370Z,3.53
2022-08-08T23:42:56.855Z,2.92
2022-08-08T23:49:02.526Z,3.00
2022-08-08T23:49:07.122Z,3.40
2022-08-08T23:50:58.033Z,4.75
2022-08-08T23:53:55.954Z,2.92
2022-08-08T23:56:10.935Z,4.22
2022-08-08T23:58:38.652Z,7.90
